Time;durP1;ratioP1;P1;durP2;ratioP2;P2;SDS_P1;SDS_P2;PMS_P1;PMS_P2;Temp;Humidity;BMP_temperature;BMP_pressure;BME280_temperature;BME280_humidity;BME280_pressure;Samples;Min_cycle;Max_cycle;Signal;HPM_P1;HPM_P2
2021/09/22 00:01:34;;;;;;;22.47;21.17;;;;;;;;;;5075427;28;20442;-86
2021/09/22 00:04:02;;;;;;;22.67;21.20;;;;;;;;;;5077178;28;20477;-86
2021/09/22 00:06:31;;;;;;;23.50;22.07;;;;;;;;;;5077275;28;20444;-86
2021/09/22 00:08:58;;;;;;;22.80;21.40;;;;;;;;;;5077375;28;20455;-86
2021/09/22 00:11:25;;;;;;;22.93;21.53;;;;;;;;;;5059743;28;20424;-86
2021/09/22 00:13:53;;;;;;;22.10;20.70;;;;;;;;;;5077063;28;20423;-86
2021/09/22 00:16:20;;;;;;;22.27;20.57;;;;;;;;;;5077456;28;20453;-86
2021/09/22 00:18:47;;;;;;;22.93;21.33;;;;;;;;;;5077329;28;20438;-86
2021/09/22 00:21:15;;;;;;;22.97;21.27;;;;;;;;;;5059610;28;20775;-85
2021/09/22 00:23:44;;;;;;;21.93;20.70;;;;;;;;;;5076938;28;20411;-86
2021/09/22 00:26:11;;;;;;;22.53;21.07;;;;;;;;;;5077013;28;20427;-86
2021/09/22 00:28:39;;;;;;;22.90;21.50;;;;;;;;;;5076444;28;20452;-86
2021/09/22 00:31:06;;;;;;;22.67;21.17;;;;;;;;;;5077007;28;20408;-85
2021/09/22 00:33:34;;;;;;;22.90;21.50;;;;;;;;;;5076699;28;20449;-86
2021/09/22 00:36:01;;;;;;;22.90;21.40;;;;;;;;;;5076424;28;20446;-86
2021/09/22 00:38:28;;;;;;;22.60;21.10;;;;;;;;;;5076832;28;20437;-86
2021/09/22 00:40:57;;;;;;;22.80;21.30;;;;;;;;;;5076181;28;20415;-86
2021/09/22 00:43:25;;;;;;;22.50;20.90;;;;;;;;;;5076527;28;20457;-86
2021/09/22 00:45:52;;;;;;;21.40;20.20;;;;;;;;;;5076288;28;20464;-86
2021/09/22 00:48:21;;;;;;;23.07;21.20;;;;;;;;;;5058502;28;20466;-86
2021/09/22 00:50:49;;;;;;;22.23;20.93;;;;;;;;;;5058553;28;20445;-85
2021/09/22 00:53:16;;;;;;;22.83;21.23;;;;;;;;;;5076399;28;20767;-86
2021/09/22 00:55:44;;;;;;;21.93;20.43;;;;;;;;;;5076217;28;20438;-86
2021/09/22 00:58:13;;;;;;;21.57;20.33;;;;;;;;;;5058636;28;20446;-86
2021/09/22 01:00:41;;;;;;;21.20;20.00;;;;;;;;;;5076300;28;20457;-86
2021/09/22 01:03:09;;;;;;;21.60;20.03;;;;;;;;;;5075689;28;20452;-86
2021/09/22 01:05:36;;;;;;;22.00;20.60;;;;;;;;;;5075855;28;20433;-86
2021/09/22 01:08:05;;;;;;;21.90;20.50;;;;;;;;;;5076274;28;20445;-86
2021/09/22 01:10:33;;;;;;;22.20;20.53;;;;;;;;;;5075734;28;20576;-85
2021/09/22 01:13:00;;;;;;;22.00;20.70;;;;;;;;;;5057485;28;20457;-86
2021/09/22 01:15:31;;;;;;;21.70;20.40;;;;;;;;;;5075728;28;20436;-86
2021/09/22 01:17:59;;;;;;;21.87;20.37;;;;;;;;;;5075629;28;20432;-87
2021/09/22 01:20:29;;;;;;;21.27;19.97;;;;;;;;;;5075655;28;20434;-87
2021/09/22 01:22:58;;;;;;;22.37;20.97;;;;;;;;;;5075726;28;20495;-87
2021/09/22 01:25:26;;;;;;;22.00;20.60;;;;;;;;;;5075319;28;20446;-87
2021/09/22 01:27:54;;;;;;;22.43;20.97;;;;;;;;;;5075525;28;20450;-87
2021/09/22 01:30:21;;;;;;;22.07;20.77;;;;;;;;;;5075761;28;20512;-87
2021/09/22 01:32:50;;;;;;;22.83;21.33;;;;;;;;;;5075599;28;20914;-87
2021/09/22 01:35:18;;;;;;;22.37;20.87;;;;;;;;;;5057940;28;20440;-87
2021/09/22 01:37:45;;;;;;;23.43;21.97;;;;;;;;;;5075214;28;20441;-86
2021/09/22 01:40:15;;;;;;;22.93;21.30;;;;;;;;;;5057855;28;20434;-87
2021/09/22 01:42:42;;;;;;;23.10;21.60;;;;;;;;;;5075066;28;20499;-86
2021/09/22 01:45:12;;;;;;;23.70;21.90;;;;;;;;;;5074868;28;20449;-87
2021/09/22 01:47:40;;;;;;;22.10;20.80;;;;;;;;;;5074902;28;20472;-87
2021/09/22 01:50:09;;;;;;;21.97;20.63;;;;;;;;;;5075425;28;20485;-87
2021/09/22 01:52:37;;;;;;;22.97;21.33;;;;;;;;;;5074998;28;20437;-86
2021/09/22 01:55:05;;;;;;;21.97;20.67;;;;;;;;;;5074895;28;20444;-87
2021/09/22 01:57:34;;;;;;;23.57;22.00;;;;;;;;;;5074933;28;20429;-87
2021/09/22 02:00:01;;;;;;;22.83;21.37;;;;;;;;;;5075130;28;20917;-86
2021/09/22 02:02:31;;;;;;;22.97;21.27;;;;;;;;;;5075193;28;20445;-87
2021/09/22 02:04:58;;;;;;;22.20;20.70;;;;;;;;;;5056958;28;20477;-86
2021/09/22 02:07:25;;;;;;;23.40;21.90;;;;;;;;;;5075378;28;20446;-87
2021/09/22 02:09:53;;;;;;;22.50;21.20;;;;;;;;;;5074614;28;20464;-86
2021/09/22 02:12:20;;;;;;;23.47;22.00;;;;;;;;;;5074914;28;20449;-87
2021/09/22 02:14:49;;;;;;;21.93;20.57;;;;;;;;;;5074648;28;20456;-87
2021/09/22 02:17:17;;;;;;;23.23;21.63;;;;;;;;;;5074614;28;20420;-86
2021/09/22 02:19:44;;;;;;;23.07;21.37;;;;;;;;;;5074543;28;20461;-87
2021/09/22 02:22:11;;;;;;;22.77;21.33;;;;;;;;;;5074559;28;20413;-87
2021/09/22 02:24:42;;;;;;;22.70;21.10;;;;;;;;;;5074362;28;20887;-87
2021/09/22 02:27:11;;;;;;;22.30;20.90;;;;;;;;;;5074623;28;20479;-86
2021/09/22 02:29:38;;;;;;;21.33;20.03;;;;;;;;;;5057125;28;20477;-87
2021/09/22 02:32:09;;;;;;;22.90;21.33;;;;;;;;;;5074648;28;20441;-87
2021/09/22 02:34:37;;;;;;;22.90;21.30;;;;;;;;;;5057081;28;20445;-87
2021/09/22 02:37:05;;;;;;;22.23;20.43;;;;;;;;;;5074467;28;20424;-87
2021/09/22 02:39:32;;;;;;;24.23;22.73;;;;;;;;;;5074251;28;20438;-87
2021/09/22 02:42:00;;;;;;;23.37;21.77;;;;;;;;;;5074222;28;20454;-87
2021/09/22 02:44:27;;;;;;;23.67;22.07;;;;;;;;;;5074563;28;20903;-87
2021/09/22 02:46:55;;;;;;;23.93;22.23;;;;;;;;;;5074341;28;20969;-86
2021/09/22 02:49:24;;;;;;;25.30;23.30;;;;;;;;;;5075098;28;20451;-86
2021/09/22 02:51:51;;;;;;;24.53;22.83;;;;;;;;;;5074453;28;20413;-87
2021/09/22 02:54:19;;;;;;;24.80;23.30;;;;;;;;;;5074226;28;20907;-87
2021/09/22 02:56:46;;;;;;;25.97;23.87;;;;;;;;;;5074032;28;20460;-86
2021/09/22 02:59:14;;;;;;;25.63;23.47;;;;;;;;;;5074073;28;20424;-86
2021/09/22 03:01:41;;;;;;;24.23;22.63;;;;;;;;;;5056541;28;20984;-87
2021/09/22 03:04:09;;;;;;;26.73;24.30;;;;;;;;;;5073921;28;20493;-87
2021/09/22 03:06:38;;;;;;;26.20;23.97;;;;;;;;;;5073977;28;20434;-87
2021/09/22 03:09:05;;;;;;;23.77;22.17;;;;;;;;;;5074134;28;20464;-87
2021/09/22 03:11:33;;;;;;;25.10;23.20;;;;;;;;;;5073867;28;20945;-86
2021/09/22 03:14:01;;;;;;;25.57;23.70;;;;;;;;;;5074149;28;20504;-86
2021/09/22 03:16:30;;;;;;;26.20;24.20;;;;;;;;;;5073826;28;20508;-87
2021/09/22 03:18:58;;;;;;;27.33;25.00;;;;;;;;;;5073827;28;20446;-87
2021/09/22 03:21:25;;;;;;;25.27;23.27;;;;;;;;;;5074190;28;20485;-86
2021/09/22 03:23:55;;;;;;;25.90;24.10;;;;;;;;;;5039857;28;20768;-85
2021/09/22 03:26:23;;;;;;;24.10;22.43;;;;;;;;;;5073987;28;20443;-87
2021/09/22 03:28:50;;;;;;;25.10;23.50;;;;;;;;;;5074101;28;20444;-87
2021/09/22 03:31:19;;;;;;;25.57;23.70;;;;;;;;;;5055715;28;20464;-87
2021/09/22 03:33:46;;;;;;;26.20;24.40;;;;;;;;;;5056786;28;20438;-87
2021/09/22 03:36:14;;;;;;;25.47;23.53;;;;;;;;;;5058092;28;20470;-86
2021/09/22 03:38:41;;;;;;;26.57;24.63;;;;;;;;;;5077895;28;20428;-87
2021/09/22 03:41:10;;;;;;;26.67;24.47;;;;;;;;;;5059947;28;20453;-87
2021/09/22 03:43:38;;;;;;;27.27;25.17;;;;;;;;;;5077693;28;20448;-87
2021/09/22 03:46:06;;;;;;;27.57;25.57;;;;;;;;;;5077959;28;20456;-86
2021/09/22 03:48:34;;;;;;;27.90;25.80;;;;;;;;;;5077544;28;21014;-86
2021/09/22 03:51:01;;;;;;;28.00;25.90;;;;;;;;;;5077532;28;20827;-86
2021/09/22 03:53:29;;;;;;;27.13;24.93;;;;;;;;;;5077623;28;20465;-87
2021/09/22 03:55:56;;;;;;;26.33;24.30;;;;;;;;;;5076854;28;20429;-86
2021/09/22 03:58:25;;;;;;;27.13;25.13;;;;;;;;;;5077239;28;20424;-87
2021/09/22 04:00:53;;;;;;;27.00;25.23;;;;;;;;;;5077426;28;20446;-87
2021/09/22 04:03:20;;;;;;;26.63;24.73;;;;;;;;;;5077123;28;20473;-87
2021/09/22 04:05:48;;;;;;;26.70;24.57;;;;;;;;;;5059470;28;20452;-87
2021/09/22 04:08:15;;;;;;;27.33;25.23;;;;;;;;;;5076864;28;20452;-87
2021/09/22 04:10:42;;;;;;;28.40;26.40;;;;;;;;;;5077252;28;20446;-87
2021/09/22 04:13:10;;;;;;;27.90;25.83;;;;;;;;;;5076857;28;20552;-87
2021/09/22 04:15:39;;;;;;;27.43;25.23;;;;;;;;;;5076985;28;20453;-87
2021/09/22 04:18:06;;;;;;;27.53;25.43;;;;;;;;;;5077324;28;20440;-87
2021/09/22 04:20:34;;;;;;;27.73;25.60;;;;;;;;;;5077275;28;20445;-86
2021/09/22 04:23:02;;;;;;;25.87;24.07;;;;;;;;;;5076628;28;20416;-86
2021/09/22 04:25:29;;;;;;;27.10;25.10;;;;;;;;;;5059114;28;20416;-87
2021/09/22 04:27:57;;;;;;;27.23;24.97;;;;;;;;;;5076595;28;20444;-86
2021/09/22 04:30:24;;;;;;;27.13;25.00;;;;;;;;;;5077184;28;20474;-86
2021/09/22 04:32:53;;;;;;;25.77;24.03;;;;;;;;;;5076650;28;20785;-86
2021/09/22 04:35:21;;;;;;;25.77;23.97;;;;;;;;;;5076818;28;20492;-87
2021/09/22 04:37:48;;;;;;;26.13;24.27;;;;;;;;;;5076654;28;20415;-87
2021/09/22 04:40:16;;;;;;;25.00;23.30;;;;;;;;;;5076577;28;20434;-87
2021/09/22 04:42:44;;;;;;;25.33;23.63;;;;;;;;;;5058835;28;20472;-87
2021/09/22 04:45:11;;;;;;;25.50;23.67;;;;;;;;;;5076577;28;20424;-86
2021/09/22 04:47:39;;;;;;;24.87;23.07;;;;;;;;;;5074878;28;20466;-87
2021/09/22 04:50:09;;;;;;;27.23;24.97;;;;;;;;;;5076426;28;20456;-87
2021/09/22 04:52:37;;;;;;;25.70;23.80;;;;;;;;;;5075885;28;20420;-87
2021/09/22 04:55:05;;;;;;;28.30;25.70;;;;;;;;;;5058957;28;20446;-86
2021/09/22 04:57:32;;;;;;;28.93;26.73;;;;;;;;;;5076043;28;20438;-87
2021/09/22 05:00:00;;;;;;;27.57;25.57;;;;;;;;;;5076536;28;20420;-87
2021/09/22 05:02:28;;;;;;;27.90;25.90;;;;;;;;;;5058313;28;20424;-87
2021/09/22 05:04:58;;;;;;;27.30;25.13;;;;;;;;;;5039271;28;20448;-87
2021/09/22 05:07:27;;;;;;;27.33;25.20;;;;;;;;;;5054896;28;20462;-87
2021/09/22 05:09:55;;;;;;;27.03;24.40;;;;;;;;;;5054709;28;20435;-87
2021/09/22 05:12:22;;;;;;;26.27;24.27;;;;;;;;;;5054967;28;20427;-87
2021/09/22 05:14:49;;;;;;;27.63;25.50;;;;;;;;;;5054926;28;20425;-87
2021/09/22 05:17:17;;;;;;;27.13;25.03;;;;;;;;;;5055119;28;20461;-87
2021/09/22 05:19:44;;;;;;;27.20;25.20;;;;;;;;;;5055134;28;20428;-87
2021/09/22 05:22:15;;;;;;;27.20;25.30;;;;;;;;;;5054964;28;20915;-87
2021/09/22 05:24:44;;;;;;;25.93;24.00;;;;;;;;;;5055002;28;20479;-87
2021/09/22 05:27:11;;;;;;;27.90;25.90;;;;;;;;;;5036817;28;20938;-87
2021/09/22 05:29:39;;;;;;;25.30;23.70;;;;;;;;;;5037015;28;20453;-86
2021/09/22 05:32:06;;;;;;;26.73;24.53;;;;;;;;;;5054450;28;20459;-87
2021/09/22 05:34:34;;;;;;;26.23;24.30;;;;;;;;;;5054371;28;20410;-87
2021/09/22 05:37:01;;;;;;;27.70;25.67;;;;;;;;;;5054775;28;20413;-87
2021/09/22 05:39:29;;;;;;;25.43;23.63;;;;;;;;;;5054392;28;20414;-87
2021/09/22 05:41:58;;;;;;;30.67;28.27;;;;;;;;;;5054609;28;20412;-87
2021/09/22 05:44:26;;;;;;;29.57;27.40;;;;;;;;;;5054279;28;20508;-86
2021/09/22 05:46:53;;;;;;;27.93;25.90;;;;;;;;;;5054437;28;20470;-87
2021/09/22 05:49:21;;;;;;;28.43;26.30;;;;;;;;;;5054503;28;20418;-87
2021/09/22 05:51:48;;;;;;;30.37;27.93;;;;;;;;;;5053764;28;20456;-84
2021/09/22 05:54:17;;;;;;;31.40;28.93;;;;;;;;;;5053784;28;20504;-84
2021/09/22 05:56:45;;;;;;;29.77;27.50;;;;;;;;;;5053687;28;20435;-84
2021/09/22 05:59:14;;;;;;;33.10;30.17;;;;;;;;;;5053857;28;20431;-87
2021/09/22 06:01:41;;;;;;;31.53;29.17;;;;;;;;;;5054128;28;20458;-87
2021/09/22 06:04:09;;;;;;;31.90;29.50;;;;;;;;;;5017586;28;1384878;-83
2021/09/22 06:06:36;;;;;;;31.53;29.03;;;;;;;;;;5074764;28;20187;-84
2021/09/22 06:09:04;;;;;;;32.10;29.63;;;;;;;;;;5074381;28;20424;-84
2021/09/22 06:11:31;;;;;;;32.40;29.90;;;;;;;;;;5074632;28;20489;-84
2021/09/22 06:13:59;;;;;;;33.10;30.50;;;;;;;;;;5074249;28;20445;-84
2021/09/22 06:16:28;;;;;;;32.57;29.83;;;;;;;;;;5074256;28;20898;-84
2021/09/22 06:18:56;;;;;;;32.27;29.67;;;;;;;;;;5073903;28;20461;-84
2021/09/22 06:21:24;;;;;;;33.97;31.27;;;;;;;;;;5056591;28;20841;-84
2021/09/22 06:23:53;;;;;;;35.13;32.03;;;;;;;;;;5074253;28;20950;-83
2021/09/22 06:26:22;;;;;;;35.40;32.33;;;;;;;;;;5074257;28;20456;-84
2021/09/22 06:28:49;;;;;;;34.20;31.40;;;;;;;;;;5074372;28;20434;-83
2021/09/22 06:31:17;;;;;;;34.40;31.60;;;;;;;;;;5056338;28;20485;-85
2021/09/22 06:33:46;;;;;;;33.73;30.83;;;;;;;;;;5074143;28;20404;-84
2021/09/22 06:36:13;;;;;;;34.17;31.17;;;;;;;;;;5056470;28;20434;-84
2021/09/22 06:38:41;;;;;;;34.90;31.93;;;;;;;;;;5073963;28;20413;-84
2021/09/22 06:41:08;;;;;;;35.60;32.60;;;;;;;;;;5073899;28;20438;-84
2021/09/22 06:43:36;;;;;;;34.57;31.87;;;;;;;;;;5055975;28;20468;-83
2021/09/22 06:46:04;;;;;;;34.97;32.10;;;;;;;;;;5056053;28;20442;-84
2021/09/22 06:48:31;;;;;;;33.47;30.60;;;;;;;;;;5073734;28;20437;-84
2021/09/22 06:51:00;;;;;;;31.97;29.40;;;;;;;;;;5074000;28;20484;-84
2021/09/22 06:53:28;;;;;;;35.57;32.67;;;;;;;;;;5074005;28;20877;-84
2021/09/22 06:55:55;;;;;;;33.77;31.13;;;;;;;;;;5073840;28;20767;-84
2021/09/22 06:58:23;;;;;;;33.63;31.03;;;;;;;;;;5056124;28;20441;-84
2021/09/22 07:00:50;;;;;;;35.40;32.40;;;;;;;;;;5073495;28;20440;-85
2021/09/22 07:03:18;;;;;;;34.63;31.73;;;;;;;;;;5073568;28;20971;-84
2021/09/22 07:05:45;;;;;;;36.27;32.77;;;;;;;;;;5073706;28;20450;-84
2021/09/22 07:08:14;;;;;;;35.67;32.37;;;;;;;;;;5074036;28;20421;-84
2021/09/22 07:10:42;;;;;;;36.57;33.47;;;;;;;;;;5056369;28;20452;-84
2021/09/22 07:13:10;;;;;;;37.80;34.60;;;;;;;;;;5078008;28;20435;-84
2021/09/22 07:15:38;;;;;;;35.20;32.17;;;;;;;;;;5077695;28;20974;-84
2021/09/22 07:18:05;;;;;;;37.50;33.70;;;;;;;;;;5077650;28;20405;-84
2021/09/22 07:20:33;;;;;;;41.23;37.23;;;;;;;;;;5078028;28;20417;-84
2021/09/22 07:23:01;;;;;;;41.03;37.33;;;;;;;;;;5077760;28;20442;-84
2021/09/22 07:25:30;;;;;;;42.47;38.10;;;;;;;;;;5077423;28;20416;-84
2021/09/22 07:27:58;;;;;;;43.03;38.57;;;;;;;;;;5077817;28;20847;-84
2021/09/22 07:30:25;;;;;;;41.53;37.53;;;;;;;;;;5077304;28;20444;-84
2021/09/22 07:32:54;;;;;;;42.33;38.10;;;;;;;;;;5059820;28;20975;-84
2021/09/22 07:35:21;;;;;;;44.13;39.30;;;;;;;;;;5077727;28;20441;-84
2021/09/22 07:37:49;;;;;;;47.20;40.63;;;;;;;;;;5077357;28;20748;-84
2021/09/22 07:40:16;;;;;;;47.97;42.87;;;;;;;;;;5077364;28;20442;-84
2021/09/22 07:42:45;;;;;;;46.60;41.57;;;;;;;;;;5077315;28;20432;-81
2021/09/22 07:45:13;;;;;;;44.50;39.90;;;;;;;;;;5077196;28;20412;-84
2021/09/22 07:47:41;;;;;;;44.97;40.37;;;;;;;;;;5078022;28;20772;-84
2021/09/22 07:50:10;;;;;;;43.83;39.37;;;;;;;;;;5077317;28;20435;-84
2021/09/22 07:52:38;;;;;;;43.33;38.63;;;;;;;;;;5077240;28;20482;-83
2021/09/22 07:55:07;;;;;;;42.27;37.77;;;;;;;;;;5077042;28;20502;-83
2021/09/22 07:57:35;;;;;;;42.60;38.00;;;;;;;;;;5059130;28;20445;-84
2021/09/22 08:00:04;;;;;;;42.50;37.47;;;;;;;;;;5077182;28;20419;-84
2021/09/22 08:02:32;;;;;;;41.77;37.27;;;;;;;;;;5076918;28;20427;-84
2021/09/22 08:05:00;;;;;;;46.30;38.83;;;;;;;;;;5076606;28;20445;-84
2021/09/22 08:07:27;;;;;;;41.33;37.23;;;;;;;;;;5077106;28;20426;-84
2021/09/22 08:09:54;;;;;;;42.80;38.30;;;;;;;;;;5077801;28;20442;-84
2021/09/22 08:12:22;;;;;;;41.53;37.53;;;;;;;;;;5076703;28;20462;-84
2021/09/22 08:14:49;;;;;;;41.60;37.37;;;;;;;;;;5077547;28;20445;-84
2021/09/22 08:17:19;;;;;;;45.23;39.17;;;;;;;;;;5076598;28;20932;-84
2021/09/22 08:19:46;;;;;;;44.90;40.20;;;;;;;;;;5058787;28;20450;-84
2021/09/22 08:22:14;;;;;;;43.87;39.27;;;;;;;;;;5076186;28;20439;-85
2021/09/22 08:24:41;;;;;;;41.57;37.30;;;;;;;;;;5059188;28;20450;-84
2021/09/22 08:27:10;;;;;;;42.63;38.57;;;;;;;;;;5076567;28;20828;-84
2021/09/22 08:29:37;;;;;;;42.97;38.20;;;;;;;;;;5076093;28;20994;-85
2021/09/22 08:32:05;;;;;;;42.53;37.90;;;;;;;;;;5058552;28;20463;-84
2021/09/22 08:34:35;;;;;;;40.37;36.47;;;;;;;;;;5075973;28;20783;-84
2021/09/22 08:37:02;;;;;;;40.73;36.73;;;;;;;;;;5076590;28;20416;-85
2021/09/22 08:39:32;;;;;;;43.13;39.03;;;;;;;;;;5058713;28;20428;-84
2021/09/22 08:42:00;;;;;;;44.50;39.73;;;;;;;;;;5075156;28;20446;-85
2021/09/22 08:44:29;;;;;;;45.07;40.07;;;;;;;;;;5076330;28;20408;-85
2021/09/22 08:46:56;;;;;;;41.97;37.50;;;;;;;;;;5073823;28;20594;-83
2021/09/22 08:49:24;;;;;;;43.57;39.07;;;;;;;;;;5064384;28;20410;-84
2021/09/22 08:51:53;;;;;;;45.73;41.00;;;;;;;;;;5063847;28;20523;-84
2021/09/22 08:54:21;;;;;;;53.03;42.60;;;;;;;;;;5064662;28;20440;-84
2021/09/22 08:56:48;;;;;;;51.97;44.90;;;;;;;;;;5055757;28;20902;-84
2021/09/22 08:59:16;;;;;;;52.03;43.97;;;;;;;;;;5056084;28;20440;-84
2021/09/22 09:01:44;;;;;;;52.67;43.90;;;;;;;;;;5055590;28;20934;-84
2021/09/22 09:04:16;;;;;;;52.27;43.40;;;;;;;;;;5055802;28;20466;-84
2021/09/22 09:06:43;;;;;;;47.73;42.80;;;;;;;;;;5056189;28;20440;-84
2021/09/22 09:09:12;;;;;;;48.43;43.33;;;;;;;;;;5055854;28;20418;-84
2021/09/22 09:11:40;;;;;;;46.83;41.63;;;;;;;;;;5055587;28;20978;-84
2021/09/22 09:14:09;;;;;;;46.30;41.60;;;;;;;;;;5055277;28;20485;-83
2021/09/22 09:16:38;;;;;;;51.83;43.60;;;;;;;;;;5055523;28;20444;-83
2021/09/22 09:19:12;;;;;;;45.37;40.40;;;;;;;;;;5021468;28;20445;-83
2021/09/22 09:21:54;;;;;;;49.10;42.50;;;;;;;;;;5055092;28;20415;-83
2021/09/22 09:24:31;;;;;;;54.67;45.47;;;;;;;;;;5054925;28;20435;-82
2021/09/22 09:26:59;;;;;;;54.97;45.80;;;;;;;;;;5054651;28;20919;-83
2021/09/22 09:29:26;;;;;;;49.40;40.37;;;;;;;;;;5054884;28;20775;-83
2021/09/22 09:32:09;;;;;;;51.60;43.97;;;;;;;;;;5054983;28;20458;-83
2021/09/22 09:34:36;;;;;;;48.13;43.03;;;;;;;;;;5054397;28;20483;-86
2021/09/22 09:37:04;;;;;;;49.23;42.37;;;;;;;;;;5038013;28;20444;-86
2021/09/22 09:39:34;;;;;;;45.57;40.47;;;;;;;;;;5055220;28;20436;-86
2021/09/22 09:42:02;;;;;;;42.70;38.30;;;;;;;;;;5055163;28;20443;-83
2021/09/22 09:44:30;;;;;;;40.90;36.63;;;;;;;;;;5054703;28;20442;-83
2021/09/22 09:47:07;;;;;;;43.40;38.83;;;;;;;;;;5054671;28;20446;-82
2021/09/22 09:49:36;;;;;;;44.53;39.67;;;;;;;;;;5054753;28;20406;-82
2021/09/22 09:52:03;;;;;;;41.80;37.40;;;;;;;;;;5054800;28;20540;-82
2021/09/22 09:54:32;;;;;;;44.23;39.70;;;;;;;;;;5054745;28;20450;-83
2021/09/22 09:57:12;;;;;;;41.57;37.43;;;;;;;;;;5054395;28;20487;-83
2021/09/22 09:59:44;;;;;;;40.03;36.30;;;;;;;;;;5054475;28;20501;-83
2021/09/22 10:02:24;;;;;;;42.43;38.13;;;;;;;;;;5054546;28;20430;-83
2021/09/22 10:04:51;;;;;;;41.60;37.77;;;;;;;;;;5054345;28;20995;-83
2021/09/22 10:07:19;;;;;;;40.80;36.70;;;;;;;;;;5054654;28;20438;-82
2021/09/22 10:09:49;;;;;;;42.47;38.53;;;;;;;;;;5054414;28;20407;-85
2021/09/22 10:12:19;;;;;;;39.27;35.27;;;;;;;;;;5054375;28;20484;-85
2021/09/22 10:14:47;;;;;;;39.27;35.13;;;;;;;;;;5054707;28;20467;-85
2021/09/22 10:17:15;;;;;;;37.67;34.07;;;;;;;;;;5054533;28;20414;-86
2021/09/22 10:19:43;;;;;;;37.57;34.07;;;;;;;;;;5054430;28;20497;-85
2021/09/22 10:22:11;;;;;;;39.13;35.20;;;;;;;;;;5054343;28;20459;-85
2021/09/22 10:24:39;;;;;;;36.80;33.20;;;;;;;;;;5054629;28;20960;-85
2021/09/22 10:27:07;;;;;;;38.23;34.63;;;;;;;;;;5054898;28;20413;-85
2021/09/22 10:29:37;;;;;;;38.13;34.07;;;;;;;;;;5036757;28;20433;-85
2021/09/22 10:32:06;;;;;;;38.40;34.40;;;;;;;;;;5036829;28;20841;-85
2021/09/22 10:34:35;;;;;;;38.23;34.33;;;;;;;;;;5054924;28;20454;-85
2021/09/22 10:37:03;;;;;;;37.77;34.30;;;;;;;;;;5054146;28;20444;-85
2021/09/22 10:39:44;;;;;;;37.40;33.70;;;;;;;;;;5054236;28;20404;-86
2021/09/22 10:42:26;;;;;;;38.00;34.30;;;;;;;;;;5054114;28;20966;-85
2021/09/22 10:45:11;;;;;;;37.20;33.40;;;;;;;;;;5054035;28;20456;-85
2021/09/22 10:47:39;;;;;;;35.97;32.73;;;;;;;;;;5054203;28;20442;-85
2021/09/22 10:50:06;;;;;;;38.30;34.67;;;;;;;;;;5054021;28;20409;-85
2021/09/22 10:52:36;;;;;;;38.40;34.70;;;;;;;;;;5054251;28;20462;-85
2021/09/22 10:55:08;;;;;;;38.77;34.97;;;;;;;;;;5053853;28;20446;-85
2021/09/22 10:57:35;;;;;;;38.00;34.50;;;;;;;;;;5054134;28;20444;-85
2021/09/22 11:00:10;;;;;;;37.87;34.57;;;;;;;;;;5053954;28;20433;-86
2021/09/22 11:02:44;;;;;;;37.20;33.90;;;;;;;;;;5036560;28;20878;-85
2021/09/22 11:05:12;;;;;;;40.20;36.60;;;;;;;;;;5034199;28;20793;-85
2021/09/22 11:08:00;;;;;;;38.27;34.90;;;;;;;;;;5034240;28;20426;-86
2021/09/22 11:10:42;;;;;;;37.63;34.20;;;;;;;;;;5033837;28;20412;-85
2021/09/22 11:13:28;;;;;;;36.93;33.93;;;;;;;;;;5033651;28;20983;-85
2021/09/22 11:16:08;;;;;;;37.57;34.37;;;;;;;;;;5033804;28;20476;-85
2021/09/22 11:18:35;;;;;;;37.47;34.40;;;;;;;;;;5016443;28;20455;-85
2021/09/22 11:21:03;;;;;;;37.37;34.47;;;;;;;;;;5033754;28;20458;-85
2021/09/22 11:23:31;;;;;;;35.83;32.87;;;;;;;;;;5033736;28;20445;-85
2021/09/22 11:26:05;;;;;;;34.87;31.87;;;;;;;;;;5034219;28;20458;-85
2021/09/22 11:28:32;;;;;;;32.13;29.43;;;;;;;;;;5033634;28;20973;-85
2021/09/22 11:31:01;;;;;;;33.23;30.70;;;;;;;;;;5034118;28;20435;-85
2021/09/22 11:33:29;;;;;;;33.30;30.70;;;;;;;;;;5033561;28;20493;-86
2021/09/22 11:36:05;;;;;;;32.00;29.60;;;;;;;;;;5016348;28;20475;-86
2021/09/22 11:38:34;;;;;;;33.60;30.63;;;;;;;;;;5033854;28;20435;-85
2021/09/22 11:41:01;;;;;;;32.93;30.53;;;;;;;;;;5033853;28;20472;-85
2021/09/22 11:43:29;;;;;;;34.70;31.57;;;;;;;;;;5033622;28;20437;-85
2021/09/22 11:46:00;;;;;;;34.93;32.23;;;;;;;;;;5033623;28;20499;-85
2021/09/22 11:48:30;;;;;;;35.03;32.10;;;;;;;;;;5033835;28;20882;-86
2021/09/22 11:50:58;;;;;;;32.30;29.77;;;;;;;;;;5033440;28;20414;-86
2021/09/22 11:53:29;;;;;;;32.90;30.10;;;;;;;;;;5033281;28;21059;-85
2021/09/22 11:55:57;;;;;;;32.83;30.03;;;;;;;;;;5033365;28;20556;-85
2021/09/22 11:58:26;;;;;;;31.60;29.30;;;;;;;;;;5036937;28;20445;-86
2021/09/22 12:00:54;;;;;;;32.90;30.10;;;;;;;;;;5037342;28;20485;-86
2021/09/22 12:03:22;;;;;;;33.80;31.30;;;;;;;;;;5042380;28;20475;-86
2021/09/22 12:06:03;;;;;;;32.13;29.30;;;;;;;;;;5057257;28;20415;-85
2021/09/22 12:08:31;;;;;;;33.77;30.73;;;;;;;;;;5056885;28;20460;-85
2021/09/22 12:10:59;;;;;;;34.27;31.00;;;;;;;;;;5057091;28;20411;-86
2021/09/22 12:13:26;;;;;;;34.03;31.53;;;;;;;;;;5057448;28;20537;-86
2021/09/22 12:15:56;;;;;;;32.70;30.13;;;;;;;;;;5056898;28;20460;-85
2021/09/22 12:18:23;;;;;;;31.97;29.47;;;;;;;;;;5057071;28;20821;-85
2021/09/22 12:20:53;;;;;;;32.60;29.77;;;;;;;;;;5056979;28;20415;-86
2021/09/22 12:23:26;;;;;;;33.43;30.70;;;;;;;;;;5056617;28;20900;-85
2021/09/22 12:25:53;;;;;;;33.20;30.70;;;;;;;;;;5056500;28;20419;-85
2021/09/22 12:28:24;;;;;;;34.17;31.50;;;;;;;;;;5056750;28;20452;-86
2021/09/22 12:30:51;;;;;;;33.73;31.13;;;;;;;;;;5056796;28;20486;-85
2021/09/22 12:33:21;;;;;;;33.70;31.10;;;;;;;;;;5056781;28;20983;-86
2021/09/22 12:35:48;;;;;;;31.53;29.00;;;;;;;;;;5038982;28;20923;-86
2021/09/22 12:38:18;;;;;;;33.87;31.17;;;;;;;;;;5056320;28;20443;-85
2021/09/22 12:40:47;;;;;;;34.37;31.70;;;;;;;;;;5056412;28;20443;-85
2021/09/22 12:43:21;;;;;;;31.87;29.40;;;;;;;;;;5038518;28;20455;-85
2021/09/22 12:45:49;;;;;;;31.53;28.93;;;;;;;;;;5056166;28;20459;-85
2021/09/22 12:48:23;;;;;;;31.57;29.00;;;;;;;;;;5056702;28;20412;-86
2021/09/22 12:50:50;;;;;;;32.77;30.13;;;;;;;;;;5039078;28;20470;-86
2021/09/22 12:53:20;;;;;;;32.50;29.60;;;;;;;;;;5056476;28;20488;-86
2021/09/22 12:55:48;;;;;;;31.60;29.27;;;;;;;;;;5056485;28;20448;-86
2021/09/22 12:58:17;;;;;;;31.53;29.13;;;;;;;;;;5056029;28;20436;-86
2021/09/22 13:03:50;;;;;;;30.77;28.33;;;;;;;;;;5056158;28;20457;-86
2021/09/22 13:06:18;;;;;;;31.60;29.10;;;;;;;;;;5056050;28;20498;-86
2021/09/22 13:08:49;;;;;;;33.17;30.77;;;;;;;;;;5054950;28;20454;-85
2021/09/22 13:11:16;;;;;;;33.07;30.57;;;;;;;;;;5055580;28;20453;-86
2021/09/22 13:13:48;;;;;;;34.90;32.10;;;;;;;;;;5055943;28;20480;-86
2021/09/22 13:16:17;;;;;;;34.70;31.63;;;;;;;;;;5035312;28;20477;-86
2021/09/22 13:18:44;;;;;;;32.40;29.70;;;;;;;;;;5055485;28;20446;-86
2021/09/22 13:21:12;;;;;;;33.77;31.27;;;;;;;;;;5055764;28;20446;-86
2021/09/22 13:23:42;;;;;;;32.33;29.50;;;;;;;;;;5055937;28;20781;-86
2021/09/22 13:26:11;;;;;;;31.40;28.97;;;;;;;;;;5055369;28;20515;-85
2021/09/22 13:28:38;;;;;;;31.80;29.40;;;;;;;;;;5055683;28;20919;-85
2021/09/22 13:31:07;;;;;;;30.07;27.83;;;;;;;;;;5055511;28;20455;-86
2021/09/22 13:33:34;;;;;;;32.90;30.37;;;;;;;;;;5055362;28;20483;-86
2021/09/22 13:36:02;;;;;;;31.57;28.97;;;;;;;;;;5055423;28;20467;-86
2021/09/22 13:38:30;;;;;;;33.07;30.47;;;;;;;;;;5055741;28;20803;-85
2021/09/22 13:40:58;;;;;;;30.67;28.13;;;;;;;;;;5055174;28;20448;-86
2021/09/22 13:43:28;;;;;;;29.50;27.27;;;;;;;;;;5055425;28;20460;-86
2021/09/22 13:45:55;;;;;;;32.10;29.60;;;;;;;;;;5054983;28;20476;-86
2021/09/22 13:48:23;;;;;;;31.33;28.97;;;;;;;;;;5055904;28;20435;-85
2021/09/22 13:50:51;;;;;;;31.67;29.07;;;;;;;;;;5054902;28;20927;-86
2021/09/22 13:53:18;;;;;;;31.37;29.00;;;;;;;;;;5055173;28;20486;-86
2021/09/22 13:55:46;;;;;;;32.33;29.93;;;;;;;;;;5054885;28;20435;-86
2021/09/22 13:58:14;;;;;;;32.33;29.93;;;;;;;;;;5055639;28;20440;-85
2021/09/22 14:00:43;;;;;;;31.40;29.10;;;;;;;;;;5037292;28;20791;-85
2021/09/22 14:03:11;;;;;;;29.70;27.60;;;;;;;;;;5033720;28;20480;-86
2021/09/22 14:05:39;;;;;;;31.83;29.13;;;;;;;;;;5035129;28;20454;-86
2021/09/22 14:08:06;;;;;;;32.23;29.80;;;;;;;;;;5034759;28;20445;-85
2021/09/22 14:10:34;;;;;;;30.30;28.10;;;;;;;;;;5035131;28;20442;-86
2021/09/22 14:13:02;;;;;;;34.17;31.47;;;;;;;;;;5034881;28;20477;-85
2021/09/22 14:15:30;;;;;;;31.90;29.53;;;;;;;;;;5034827;28;20972;-86
2021/09/22 14:17:59;;;;;;;34.57;31.67;;;;;;;;;;5034700;28;20512;-85
2021/09/22 14:20:27;;;;;;;32.90;30.07;;;;;;;;;;5034538;28;20412;-85
2021/09/22 14:22:55;;;;;;;31.00;28.30;;;;;;;;;;5034556;28;20449;-86
2021/09/22 14:25:23;;;;;;;31.27;29.03;;;;;;;;;;5034927;28;20790;-85
2021/09/22 14:27:50;;;;;;;30.07;27.90;;;;;;;;;;5034588;28;20412;-86